LGAVLGSY

Guest
Details From LGAV - Athens Intl Airport Elefterios Venizel
To LGSY - SKIROS
Flight Number -
Tags generated
Created
Modified
Stats Distance 68 nm / 126 km
Max Altitude 100 ft / 30 m
Waypoints 3
Social Downloads 5
Likes 0
Share VATSIM

Download

Looking for another format? Having issues loading an existing format? Contact us
Advertisement - Login to hide

Notes

Basic altitude profile: - Ascent Rate: 700ft/min - Ascent Speed: 150kts - Cruise Altitude: 3100ft - Cruise Speed: 150kts - Descent Rate: 700ft/min - Descent Speed: 150kts Options: - Use NATs: yes - Use PACOTS: yes - Use low airways: yes - Use high airways: yes

Route

LGAV KERES LGSY

ID Type Via Altitude Latitude Longitude Leg Dist Tot Dist Heading (true) Name
O LGAV APT - 0 ft / 0 m 37.93636˚ 23.94447˚ - 0 nm - Athens Intl Airport Elefterios Venizel
KERES FIX - 100 ft / 30 m 38.97722˚ 24.49222˚ 67 nm 67 nm 22° / 23° -
O LGSY APT - 0 ft / 0 m 38.96755˚ 24.48723˚ 0 nm 68 nm 202° / 202° SKIROS

Altitude Profile

Advertisement - Login to hide

LGAV

Details ICAO LGAV (ATH)
Name Athens Intl Airport Elefterios Venizel
Region Greece
Timezone Europe/Athens (UTC+2.0)
Stats Elevation 308 ft / 94 m (AMSL)
Location 37.936357° 23.944470°
Runways 2
Magnetic Variation 4.484° E

METAR

LGAV 131050Z 26009KT 9999 FEW030 20/08 Q1021 NOSIG

Decode

TAF

TAF TAF LGAV 130500Z 1306/1406 27005KT 9999 FEW030 BECMG 1307/1309 27015KT

Decode

Departure Runways

ID Width Length Bearing (true) Bearing (mag) Surface Threshold Offset Overrun Length
03L 148 ft / 45 m 12,474 ft / 3,802 m 36.51° 32.03° Asphalt 984 ft / 300 m 393 ft / 120 m
03R 148 ft / 45 m 13,131 ft / 4,002 m 36.52° 32.04° Asphalt 984 ft / 300 m 393 ft / 120 m
21L 148 ft / 45 m 13,131 ft / 4,002 m 216.54° 212.06° Asphalt 984 ft / 300 m 393 ft / 120 m
21R 148 ft / 45 m 12,474 ft / 3,802 m 216.53° 212.05° Asphalt 984 ft / 300 m 393 ft / 120 m

LGSY

Details ICAO LGSY (SKU)
Name SKIROS
Region Greece
Timezone Europe/Athens (UTC+2.0)
Stats Elevation 44 ft / 13 m (AMSL)
Location 38.967554° 24.487226°
Runways 1
Magnetic Variation 4.657° E

METAR

LGSY 131050Z 25010KT CAVOK 18/11 Q1018 RMK FEW200 BLU

Decode

TAF

Not found

Destination Runways

ID Width Length Bearing (true) Bearing (mag) Surface Threshold Offset Overrun Length
18 98 ft / 30 m 9,864 ft / 3,006 m 175.81° 171.15° Asphalt 541 ft / 165 m 956 ft / 291 m
36 98 ft / 30 m 9,864 ft / 3,006 m 355.81° 351.15° Asphalt 2,625 ft / 800 m 890 ft / 271 m

Popular Alternatives